Time;durP1;ratioP1;P1;durP2;ratioP2;P2;SDS_P1;SDS_P2;PMS_P1;PMS_P2;Temp;Humidity;BMP_temperature;BMP_pressure;BME280_temperature;BME280_humidity;BME280_pressure;Samples;Min_cycle;Max_cycle;Signal;HPM_P1;HPM_P2
2021/08/16 00:01:53;;;;;;;3.70;1.95;;;;;;;15.07;73.16;100091.41;5085121;28;20024;-85
2021/08/16 00:04:18;;;;;;;4.10;1.70;;;;;;;15.06;73.09;100091.72;5092001;28;20031;-83
2021/08/16 00:06:44;;;;;;;4.20;2.35;;;;;;;15.05;72.96;100082.66;5085709;28;20031;-84
2021/08/16 00:09:09;;;;;;;4.63;2.35;;;;;;;15.05;73.13;100082.66;5086529;28;20077;-84
2021/08/16 00:11:35;;;;;;;4.65;2.13;;;;;;;15.05;73.36;100085.41;5085529;28;20024;-83
2021/08/16 00:14:01;;;;;;;5.93;3.15;;;;;;;15.03;73.56;100084.94;5092881;28;20189;-84
2021/08/16 00:16:27;;;;;;;5.25;2.35;;;;;;;15.04;73.72;100080.25;5085738;28;20066;-84
2021/08/16 00:18:52;;;;;;;5.45;2.33;;;;;;;15.02;73.75;100077.81;5083203;28;20031;-84
2021/08/16 00:21:18;;;;;;;4.00;2.00;;;;;;;15.01;73.73;100078.97;5091212;28;20358;-83
2021/08/16 00:23:43;;;;;;;5.07;1.98;;;;;;;14.99;73.64;100072.97;5078770;28;20070;-85
2021/08/16 00:26:08;;;;;;;2.80;1.80;;;;;;;14.99;73.82;100072.97;5079087;28;20055;-82
2021/08/16 00:28:34;;;;;;;2.55;1.60;;;;;;;14.98;74.05;100079.59;5082138;28;20077;-81
2021/08/16 00:30:59;;;;;;;3.97;2.08;;;;;;;14.98;73.88;100065.09;5088027;28;20023;-82
2021/08/16 00:33:25;;;;;;;2.90;1.55;;;;;;;14.97;74.01;100069.75;5093235;28;20028;-81
2021/08/16 00:35:50;;;;;;;2.25;1.35;;;;;;;14.94;73.73;100062.16;5092860;28;20141;-81
2021/08/16 00:38:15;;;;;;;2.63;1.83;;;;;;;14.92;73.68;100066.34;5078461;28;20035;-81
2021/08/16 00:40:41;;;;;;;2.85;1.85;;;;;;;14.87;73.85;100065.38;5083190;28;20028;-80
2021/08/16 00:43:06;;;;;;;3.00;1.70;;;;;;;14.84;73.80;100062.44;5087835;28;20043;-80
2021/08/16 00:45:32;;;;;;;4.85;1.75;;;;;;;14.79;74.08;100066.16;5092087;28;20459;-81
2021/08/16 00:47:57;;;;;;;5.97;2.47;;;;;;;14.76;74.37;100060.50;5084679;28;20465;-81
2021/08/16 00:50:23;;;;;;;6.00;2.42;;;;;;;14.75;74.71;100050.66;5081374;28;20024;-80
2021/08/16 00:52:48;;;;;;;3.60;1.95;;;;;;;14.74;74.89;100054.53;5087537;28;20046;-81
2021/08/16 00:55:14;;;;;;;5.85;2.55;;;;;;;14.72;75.15;100045.81;5066763;28;20025;-79
2021/08/16 00:57:40;;;;;;;3.13;1.83;;;;;;;14.71;75.33;100052.44;5073426;28;20069;-79
2021/08/16 01:00:06;;;;;;;2.63;1.73;;;;;;;14.69;75.64;100035.47;5084745;28;20020;-79
2021/08/16 01:02:32;;;;;;;6.80;2.40;;;;;;;14.67;75.70;100043.22;5082856;28;20039;-79
2021/08/16 01:04:57;;;;;;;4.13;2.40;;;;;;;14.63;76.05;100035.63;5081256;28;20039;-80
2021/08/16 01:07:23;;;;;;;4.35;2.08;;;;;;;14.59;76.41;100031.88;5085774;28;20035;-81
2021/08/16 01:09:48;;;;;;;5.65;2.70;;;;;;;14.58;76.51;100029.47;5090772;28;20031;-80
2021/08/16 01:12:14;;;;;;;4.90;2.50;;;;;;;14.55;76.85;100025.44;5083650;28;20028;-81
2021/08/16 01:14:40;;;;;;;4.35;2.30;;;;;;;14.54;77.03;100023.84;5088211;28;20056;-81
2021/08/16 01:17:07;;;;;;;6.93;2.67;;;;;;;14.53;77.20;100019.47;5086178;28;20052;-82
2021/08/16 01:19:32;;;;;;;3.95;2.47;;;;;;;14.54;77.50;100023.00;5089825;28;20097;-82
2021/08/16 01:21:58;;;;;;;5.50;2.10;;;;;;;14.52;77.45;100022.50;5088854;28;20411;-81
2021/08/16 01:24:23;;;;;;;5.38;1.85;;;;;;;14.49;77.57;100018.47;5091763;28;20020;-82
2021/08/16 01:26:48;;;;;;;3.22;1.80;;;;;;;14.48;77.79;100016.84;5066205;28;20085;-82
2021/08/16 01:29:16;;;;;;;3.55;2.08;;;;;;;14.47;77.82;100007.00;5092332;28;20036;-80
2021/08/16 01:31:42;;;;;;;3.70;2.42;;;;;;;14.46;77.73;100013.63;5083159;28;20028;-81
2021/08/16 01:34:07;;;;;;;4.47;2.47;;;;;;;14.47;77.97;100006.19;5083852;28;20354;-82
2021/08/16 01:36:33;;;;;;;2.58;1.88;;;;;;;14.48;77.90;100018.78;5087062;28;20117;-81
2021/08/16 01:38:58;;;;;;;3.05;1.70;;;;;;;14.48;77.79;100018.78;5081792;28;20036;-83
2021/08/16 01:41:23;;;;;;;2.78;1.77;;;;;;;14.44;77.83;100010.38;5083132;28;20048;-82
2021/08/16 01:43:49;;;;;;;5.80;2.17;;;;;;;14.43;77.73;100011.50;5087687;28;20032;-82
2021/08/16 01:46:14;;;;;;;3.35;2.08;;;;;;;14.43;77.95;100006.00;5083328;28;20389;-83
2021/08/16 01:48:39;;;;;;;3.90;1.77;;;;;;;14.43;77.50;100001.34;5089397;28;20027;-82
2021/08/16 01:51:05;;;;;;;4.05;1.77;;;;;;;14.44;78.45;99996.66;5080129;28;20077;-82
2021/08/16 01:53:31;;;;;;;2.88;2.15;;;;;;;14.42;78.14;99998.91;5082900;28;20412;-81
2021/08/16 01:55:56;;;;;;;2.92;1.83;;;;;;;14.41;78.18;99995.38;5089670;28;20028;-81
2021/08/16 01:58:22;;;;;;;3.85;1.90;;;;;;;14.41;78.34;99991.81;5087819;28;20184;-80
2021/08/16 02:00:47;;;;;;;3.33;2.67;;;;;;;14.43;78.43;99989.56;5071805;28;20031;-81
2021/08/16 02:03:13;;;;;;;2.72;1.60;;;;;;;14.41;78.30;99992.63;5079804;28;20468;-80
2021/08/16 02:05:39;;;;;;;2.40;1.60;;;;;;;14.41;78.48;99994.56;5082453;28;20427;-80
2021/08/16 02:08:05;;;;;;;2.10;1.70;;;;;;;14.43;78.32;99995.03;5070691;28;20028;-81
2021/08/16 02:10:30;;;;;;;6.45;2.30;;;;;;;14.44;78.47;99991.19;5055692;28;20020;-81
2021/08/16 02:12:55;;;;;;;4.43;1.88;;;;;;;14.44;78.54;99981.03;5088763;28;20024;-80
2021/08/16 02:15:21;;;;;;;4.32;2.80;;;;;;;14.47;78.38;99984.25;5085887;28;20028;-80
2021/08/16 02:17:46;;;;;;;2.60;2.20;;;;;;;14.47;78.59;99989.75;5080340;28;20047;-81
2021/08/16 02:20:12;;;;;;;3.45;2.50;;;;;;;14.49;78.74;99988.28;5090879;28;20020;-81
2021/08/16 02:22:37;;;;;;;4.55;2.42;;;;;;;14.49;78.86;99982.81;5086335;28;20096;-80
2021/08/16 02:25:03;;;;;;;5.25;2.28;;;;;;;14.49;78.92;99982.81;5072437;28;20089;-81
2021/08/16 02:27:29;;;;;;;4.10;2.38;;;;;;;14.49;78.99;99969.09;5063754;28;20031;-80
2021/08/16 02:29:55;;;;;;;2.70;1.88;;;;;;;14.48;79.01;99964.72;5089338;28;20084;-81
2021/08/16 02:32:20;;;;;;;4.95;2.47;;;;;;;14.48;79.17;99967.47;5085396;28;20020;-80
2021/08/16 02:34:45;;;;;;;3.13;2.30;;;;;;;14.48;78.67;99969.41;5086369;28;20878;-80
2021/08/16 02:37:11;;;;;;;5.72;2.83;;;;;;;14.48;79.09;99961.97;5084483;28;20036;-79
2021/08/16 02:39:36;;;;;;;3.83;2.13;;;;;;;14.47;79.08;99960.38;5078866;28;20074;-80
2021/08/16 02:42:01;;;;;;;4.75;2.08;;;;;;;14.46;78.95;99958.78;5081220;28;20528;-78
2021/08/16 02:44:27;;;;;;;5.70;3.28;;;;;;;14.45;78.89;99959.88;5086456;28;20028;-79
2021/08/16 02:46:52;;;;;;;6.18;2.67;;;;;;;14.43;78.94;99956.66;5062932;28;20382;-80
2021/08/16 02:49:18;;;;;;;2.40;1.90;;;;;;;14.42;79.32;99955.03;5080468;28;20016;-79
2021/08/16 02:51:43;;;;;;;5.43;2.15;;;;;;;14.42;78.70;99955.03;5067462;28;20530;-79
2021/08/16 02:54:08;;;;;;;4.50;2.55;;;;;;;14.40;78.77;99957.28;5086966;28;20035;-80
2021/08/16 02:56:34;;;;;;;6.95;3.28;;;;;;;14.40;78.57;99951.81;5087299;28;20028;-79
2021/08/16 02:58:59;;;;;;;7.18;2.67;;;;;;;14.38;78.87;99945.84;5074870;28;20024;-79
2021/08/16 03:01:25;;;;;;;5.53;3.25;;;;;;;14.37;78.85;99944.22;5087246;28;20016;-79
2021/08/16 03:03:50;;;;;;;9.00;3.90;;;;;;;14.38;79.13;99932.16;5082410;28;20040;-79
2021/08/16 03:06:16;;;;;;;5.97;3.15;;;;;;;14.37;79.41;99934.06;5085959;28;20046;-79
2021/08/16 03:08:41;;;;;;;4.75;3.30;;;;;;;14.36;79.54;99935.19;5070398;28;20102;-79
2021/08/16 03:11:07;;;;;;;5.20;3.58;;;;;;;14.37;79.83;99936.00;5092742;28;20473;-78
2021/08/16 03:13:33;;;;;;;7.43;3.53;;;;;;;14.39;79.86;99939.22;5090868;28;20084;-79
2021/08/16 03:15:58;;;;;;;5.40;3.65;;;;;;;14.38;80.15;99937.63;5087727;28;20028;-78
2021/08/16 03:18:24;;;;;;;6.20;4.20;;;;;;;14.37;80.12;99936.78;5084068;28;20458;-78
2021/08/16 03:20:51;;;;;;;4.95;3.45;;;;;;;14.37;80.29;99933.25;5087994;28;20032;-79
2021/08/16 03:23:16;;;;;;;4.78;3.50;;;;;;;14.36;80.20;99928.91;5088962;28;20043;-79
2021/08/16 03:25:42;;;;;;;4.75;3.28;;;;;;;14.36;80.18;99928.91;5090879;28;20032;-78
2021/08/16 03:28:07;;;;;;;8.55;4.40;;;;;;;14.35;80.19;99930.00;5091761;28;20028;-78
2021/08/16 03:30:33;;;;;;;8.27;3.53;;;;;;;14.34;80.30;99925.66;5084646;28;20024;-79
2021/08/16 03:32:58;;;;;;;8.45;4.22;;;;;;;14.34;80.38;99925.66;5089587;28;20315;-79
2021/08/16 03:35:23;;;;;;;7.03;4.30;;;;;;;14.31;80.44;99916.16;5086236;28;20039;-79
2021/08/16 03:37:49;;;;;;;4.30;3.78;;;;;;;14.31;80.89;99927.13;5086796;28;20031;-78
2021/08/16 03:40:14;;;;;;;6.93;3.63;;;;;;;14.31;80.72;99915.34;5090259;28;20035;-79
2021/08/16 03:42:40;;;;;;;5.63;3.67;;;;;;;14.29;81.08;99918.41;5081823;28;20048;-79
2021/08/16 03:45:13;;;;;;;8.10;3.53;;;;;;;14.28;81.24;99916.00;5086840;28;20039;-79
2021/08/16 03:47:38;;;;;;;5.75;3.63;;;;;;;14.28;81.08;99916.00;5089225;28;20043;-79
2021/08/16 03:50:05;;;;;;;7.53;3.60;;;;;;;14.24;81.28;99907.59;5091233;28;20031;-79
2021/08/16 03:52:31;;;;;;;6.22;3.78;;;;;;;14.23;81.35;99907.91;5080392;28;20150;-79
2021/08/16 03:54:56;;;;;;;3.95;3.00;;;;;;;14.20;81.43;99904.69;5093461;28;20110;-80
2021/08/16 03:57:22;;;;;;;4.05;2.65;;;;;;;14.20;81.41;99903.88;5083603;28;20073;-79
2021/08/16 03:59:47;;;;;;;4.70;2.97;;;;;;;14.19;81.36;99911.28;5084258;28;20031;-79
2021/08/16 04:02:13;;;;;;;4.78;2.78;;;;;;;14.19;81.26;99897.59;5082287;28;20039;-80
2021/08/16 04:04:38;;;;;;;7.65;3.63;;;;;;;14.19;81.43;99897.59;5082457;28;20469;-80
2021/08/16 04:07:03;;;;;;;4.65;2.90;;;;;;;14.20;81.45;99898.41;5089942;28;20410;-79
2021/08/16 04:09:29;;;;;;;4.00;3.08;;;;;;;14.21;81.42;99900.00;5083273;28;20032;-78
2021/08/16 04:11:54;;;;;;;6.18;3.20;;;;;;;14.17;81.63;99904.53;5072906;28;20043;-80
2021/08/16 04:14:20;;;;;;;5.78;2.70;;;;;;;14.18;81.73;99895.97;5087275;28;20028;-80
2021/08/16 04:16:45;;;;;;;4.93;2.97;;;;;;;14.18;81.65;99893.22;5084578;28;20031;-79
2021/08/16 04:19:10;;;;;;;5.30;3.22;;;;;;;14.17;81.63;99894.34;5085037;28;20028;-80
2021/08/16 04:21:36;;;;;;;4.78;3.70;;;;;;;14.16;81.93;99898.22;5090986;28;20016;-80
2021/08/16 04:24:02;;;;;;;5.03;3.30;;;;;;;14.17;81.93;99888.88;5077867;28;20037;-80
2021/08/16 04:26:28;;;;;;;5.50;3.20;;;;;;;14.20;82.01;99898.41;5091727;28;20016;-80
2021/08/16 04:28:53;;;;;;;5.88;3.08;;;;;;;14.20;82.08;99892.91;5089333;28;20024;-81
2021/08/16 04:31:19;;;;;;;5.22;4.13;;;;;;;14.21;81.96;99889.88;5082812;28;20403;-81
2021/08/16 04:33:44;;;;;;;8.68;4.40;;;;;;;14.23;82.02;99889.53;5088503;28;20405;-80
2021/08/16 04:36:09;;;;;;;6.38;3.97;;;;;;;14.28;82.08;99894.06;5088246;28;20052;-80
2021/08/16 04:38:35;;;;;;;6.55;4.38;;;;;;;14.29;82.01;99907.44;5069255;28;20032;-80
2021/08/16 04:41:00;;;;;;;6.63;4.05;;;;;;;14.31;82.09;99904.38;5086575;28;20237;-80
2021/08/16 04:43:26;;;;;;;7.28;4.45;;;;;;;14.31;82.20;99902.44;5090615;28;20036;-80
2021/08/16 04:45:51;;;;;;;7.40;4.85;;;;;;;14.33;82.32;99902.13;5087098;28;20073;-81
2021/08/16 04:48:17;;;;;;;6.05;4.35;;;;;;;14.35;82.45;99897.09;5085941;28;20118;-81
2021/08/16 04:50:42;;;;;;;6.43;4.45;;;;;;;14.36;82.67;99896.81;5080767;28;20377;-81
2021/08/16 04:53:07;;;;;;;8.35;5.05;;;;;;;14.37;82.72;99887.44;5081956;28;20025;-80
2021/08/16 04:55:33;;;;;;;5.78;4.25;;;;;;;14.40;82.62;99892.31;5079193;28;20035;-81
2021/08/16 04:57:58;;;;;;;8.32;4.63;;;;;;;14.43;83.03;99890.81;5077213;28;20032;-80
2021/08/16 05:00:25;;;;;;;5.53;4.55;;;;;;;14.47;82.72;99900.03;5078609;28;20420;-81
2021/08/16 05:02:54;;;;;;;3.88;2.88;;;;;;;14.50;82.80;99891.16;5081734;28;20399;-82
2021/08/16 05:05:23;;;;;;;7.85;4.20;;;;;;;14.53;82.67;99901.53;5086922;28;20024;-81
2021/08/16 05:07:53;;;;;;;4.45;3.33;;;;;;;14.55;82.58;99898.47;5074004;28;20040;-81
2021/08/16 05:10:21;;;;;;;7.90;4.90;;;;;;;14.58;82.25;99898.63;5069102;28;20024;-81
2021/08/16 05:12:47;;;;;;;7.18;4.28;;;;;;;14.59;82.54;99905.72;5085490;28;20032;-81
2021/08/16 05:15:13;;;;;;;4.35;3.47;;;;;;;14.63;82.59;99901.22;5085093;28;20503;-79
2021/08/16 05:17:38;;;;;;;7.25;4.32;;;;;;;14.65;82.65;99893.47;5080470;28;20035;-79
2021/08/16 05:20:05;;;;;;;7.93;4.60;;;;;;;14.68;82.76;99891.19;5087686;28;20040;-80
2021/08/16 05:22:30;;;;;;;7.47;4.05;;;;;;;14.71;82.71;99885.88;5087092;28;20055;-80
2021/08/16 05:24:56;;;;;;;5.82;4.53;;;;;;;14.74;82.77;99889.91;5088914;28;20036;-79
2021/08/16 05:27:21;;;;;;;6.50;4.13;;;;;;;14.75;82.69;99892.31;5094009;28;20105;-80
2021/08/16 05:29:47;;;;;;;7.13;3.70;;;;;;;14.75;82.70;99886.03;5089926;28;20031;-77
2021/08/16 05:32:13;;;;;;;6.72;3.95;;;;;;;14.75;82.70;99889.59;5092504;28;20323;-77
2021/08/16 05:34:38;;;;;;;4.32;3.42;;;;;;;14.76;82.67;99893.13;5092007;28;20031;-77
2021/08/16 05:37:04;;;;;;;8.25;4.30;;;;;;;14.79;82.46;99892.50;5091165;28;20098;-77
2021/08/16 05:39:29;;;;;;;7.03;4.40;;;;;;;14.78;82.71;99888.94;5088552;28;20024;-77
2021/08/16 05:41:55;;;;;;;4.28;2.63;;;;;;;14.78;82.21;99891.66;5092351;28;20040;-77
2021/08/16 05:44:20;;;;;;;5.53;3.42;;;;;;;14.80;82.42;99894.91;5085036;28;20027;-78
2021/08/16 05:46:46;;;;;;;4.97;3.58;;;;;;;14.82;82.46;99889.91;5091545;28;20024;-78
2021/08/16 05:49:11;;;;;;;3.85;2.95;;;;;;;14.85;82.48;99894.75;5085146;28;20039;-77
2021/08/16 05:51:36;;;;;;;7.28;3.95;;;;;;;14.86;82.29;99893.59;5091095;28;20094;-77
2021/08/16 05:54:03;;;;;;;7.63;3.95;;;;;;;14.87;82.45;99892.50;5090756;28;20032;-77
2021/08/16 05:56:29;;;;;;;5.07;3.60;;;;;;;14.88;82.54;99898.78;5078714;28;20162;-80
2021/08/16 05:58:54;;;;;;;6.45;3.15;;;;;;;14.91;82.63;99895.38;5088137;28;20032;-80
2021/08/16 06:01:20;;;;;;;6.20;3.92;;;;;;;14.96;82.43;99903.44;5090455;28;20028;-80
2021/08/16 06:03:45;;;;;;;8.30;3.88;;;;;;;15.01;82.41;99895.06;5092092;28;20032;-81
2021/08/16 06:06:10;;;;;;;6.85;3.63;;;;;;;15.06;82.78;99897.63;5089393;28;20032;-81
2021/08/16 06:08:36;;;;;;;4.47;3.13;;;;;;;15.09;82.41;99913.44;5093605;28;20020;-80
2021/08/16 06:11:03;;;;;;;5.80;3.35;;;;;;;15.09;82.25;99913.44;5082422;28;20461;-81
2021/08/16 06:13:28;;;;;;;5.45;3.50;;;;;;;15.13;82.22;99908.09;5089869;28;20051;-80
2021/08/16 06:15:54;;;;;;;4.47;2.78;;;;;;;15.15;82.23;99908.59;5079600;28;20023;-80
2021/08/16 06:18:19;;;;;;;6.82;2.40;;;;;;;15.15;81.72;99905.06;5086774;28;20035;-80
2021/08/16 06:20:44;;;;;;;4.47;2.42;;;;;;;15.12;81.75;99903.75;5086343;28;20453;-80
2021/08/16 06:23:10;;;;;;;3.72;2.38;;;;;;;15.13;81.45;99901.81;5080758;28;20043;-80
2021/08/16 06:25:35;;;;;;;4.90;2.70;;;;;;;15.15;81.35;99902.31;5079494;28;20043;-80
2021/08/16 06:28:01;;;;;;;4.30;2.53;;;;;;;15.14;81.07;99896.00;5079587;28;20040;-80
2021/08/16 06:30:26;;;;;;;3.60;2.60;;;;;;;15.16;81.00;99895.66;5081878;28;20073;-79
2021/08/16 06:32:51;;;;;;;4.40;2.30;;;;;;;15.17;80.86;99891.78;5077867;28;20405;-80
2021/08/16 06:35:18;;;;;;;5.22;3.15;;;;;;;15.18;80.75;99898.91;5090208;28;20024;-81
2021/08/16 06:37:45;;;;;;;5.88;2.78;;;;;;;15.19;80.72;99897.75;5084780;28;20022;-80
2021/08/16 06:40:11;;;;;;;5.47;2.58;;;;;;;15.18;80.79;99909.88;5083678;28;20026;-79
2021/08/16 06:42:37;;;;;;;2.95;2.65;;;;;;;15.17;80.86;99902.75;5089037;28;20132;-78
2021/08/16 06:45:03;;;;;;;4.70;2.78;;;;;;;15.16;80.65;99906.66;5094659;28;20035;-80
2021/08/16 06:47:28;;;;;;;3.55;2.40;;;;;;;15.12;80.53;99906.50;5086938;28;20559;-81
2021/08/16 06:49:54;;;;;;;6.20;2.53;;;;;;;15.09;80.50;99907.97;5082124;28;20032;-79
2021/08/16 06:52:19;;;;;;;4.72;2.47;;;;;;;15.08;80.71;99911.00;5085979;28;20019;-73
2021/08/16 06:54:45;;;;;;;4.38;2.75;;;;;;;15.10;80.62;99915.06;5082086;28;20032;-74
2021/08/16 06:57:10;;;;;;;4.57;2.67;;;;;;;15.15;80.62;99921.53;5082830;28;22355;-74
2021/08/16 06:59:35;;;;;;;7.55;3.05;;;;;;;15.18;80.49;99910.69;5077980;28;20047;-74
2021/08/16 07:02:02;;;;;;;3.70;2.90;;;;;;;15.20;80.61;99918.59;5074295;28;20040;-74
2021/08/16 07:04:28;;;;;;;4.60;2.58;;;;;;;15.20;80.59;99913.91;5081891;28;20077;-74
2021/08/16 07:06:53;;;;;;;4.60;2.35;;;;;;;15.21;80.60;99915.53;5086464;28;20428;-72
2021/08/16 07:09:18;;;;;;;5.13;2.67;;;;;;;15.22;80.87;99914.41;5090523;28;20183;-75
2021/08/16 07:11:44;;;;;;;3.55;2.90;;;;;;;15.24;80.77;99914.88;5085575;28;20050;-74
2021/08/16 07:14:10;;;;;;;6.30;3.25;;;;;;;15.26;80.90;99922.78;5081692;28;20028;-73
2021/08/16 07:16:35;;;;;;;4.75;2.90;;;;;;;15.28;81.04;99920.53;5084832;28;20024;-74
2021/08/16 07:19:01;;;;;;;3.90;2.85;;;;;;;15.28;81.01;99920.53;5086567;28;20028;-74
2021/08/16 07:21:26;;;;;;;6.03;2.58;;;;;;;15.27;81.09;99921.63;5089312;28;20382;-74
2021/08/16 07:23:51;;;;;;;7.30;3.42;;;;;;;15.29;81.34;99924.88;5082826;28;20028;-74
2021/08/16 07:26:17;;;;;;;7.05;3.03;;;;;;;15.31;81.31;99919.88;5083074;28;20031;-73
2021/08/16 07:28:46;;;;;;;6.20;3.38;;;;;;;15.32;81.42;99924.22;5083423;28;20380;-74
2021/08/16 07:31:11;;;;;;;9.02;3.22;;;;;;;15.32;81.57;99924.22;5079629;28;20024;-73
2021/08/16 07:33:37;;;;;;;8.70;3.38;;;;;;;15.31;81.47;99920.69;5086754;28;20039;-72
2021/08/16 07:36:02;;;;;;;7.07;3.60;;;;;;;15.31;81.81;99923.41;5093500;28;20024;-73
2021/08/16 07:38:28;;;;;;;6.50;3.42;;;;;;;15.32;81.72;99926.97;5089962;28;20023;-71
2021/08/16 07:40:53;;;;;;;5.22;2.78;;;;;;;15.31;81.89;99925.38;5087800;28;20077;-73
2021/08/16 07:43:20;;;;;;;5.25;3.28;;;;;;;15.29;82.16;99922.13;5091021;28;20048;-73
2021/08/16 07:45:47;;;;;;;6.85;2.92;;;;;;;15.28;82.16;99921.34;5088886;28;20028;-73
2021/08/16 07:48:12;;;;;;;7.03;3.50;;;;;;;15.26;82.14;99920.03;5079068;28;20025;-74
2021/08/16 07:50:38;;;;;;;8.77;3.50;;;;;;;15.23;82.31;99912.47;5081971;28;20024;-73
2021/08/16 07:53:04;;;;;;;5.68;3.50;;;;;;;15.24;82.41;99919.56;5088922;28;20741;-80
2021/08/16 07:55:29;;;;;;;9.55;3.60;;;;;;;15.27;82.48;99921.63;5085599;28;20047;-80
2021/08/16 07:57:54;;;;;;;5.63;3.38;;;;;;;15.27;82.52;99929.88;5080404;28;20020;-80
2021/08/16 08:00:20;;;;;;;5.97;3.33;;;;;;;15.28;82.71;99937.81;5081509;28;20024;-80
2021/08/16 08:02:47;;;;;;;4.85;3.08;;;;;;;15.29;82.48;99939.41;5080444;28;20461;-80
2021/08/16 08:05:14;;;;;;;4.32;3.13;;;;;;;15.29;82.54;99944.09;5086511;28;20506;-80
2021/08/16 08:07:41;;;;;;;6.32;2.85;;;;;;;15.25;82.87;99943.13;5082477;28;20029;-85
2021/08/16 08:10:07;;;;;;;3.67;2.17;;;;;;;15.18;82.23;99937.34;5080407;28;20025;-80
2021/08/16 08:12:32;;;;;;;3.47;2.30;;;;;;;15.19;82.37;99933.44;5090716;28;20036;-80
2021/08/16 08:14:57;;;;;;;4.88;2.45;;;;;;;15.20;82.26;99929.59;5083745;28;20746;-80
2021/08/16 08:17:23;;;;;;;4.60;2.30;;;;;;;15.27;82.09;99924.38;5085128;28;20020;-80
2021/08/16 08:19:50;;;;;;;5.75;2.17;;;;;;;15.34;81.82;99934.91;5085083;28;20081;-81
2021/08/16 08:22:18;;;;;;;2.65;2.10;;;;;;;15.41;81.69;99930.50;5084928;28;20069;-80
2021/08/16 08:24:44;;;;;;;6.35;2.50;;;;;;;15.50;81.58;99931.28;5091281;28;20024;-80
2021/08/16 08:27:12;;;;;;;5.30;2.42;;;;;;;15.60;81.58;99932.06;5084266;28;20059;-79
2021/08/16 08:29:37;;;;;;;5.25;2.30;;;;;;;15.70;81.47;99927.03;5084618;28;20028;-79
2021/08/16 08:32:03;;;;;;;5.85;2.47;;;;;;;15.80;81.34;99922.34;5073856;28;20093;-73
2021/08/16 08:34:28;;;;;;;3.70;2.33;;;;;;;15.94;81.15;99917.41;5080458;28;20081;-73
2021/08/16 08:36:54;;;;;;;7.65;2.30;;;;;;;16.06;81.15;99922.19;5086721;28;20073;-72
2021/08/16 08:39:19;;;;;;;4.32;1.80;;;;;;;16.16;80.83;99916.31;5087284;28;20020;-73
2021/08/16 08:41:45;;;;;;;3.92;1.90;;;;;;;16.32;80.52;99922.84;5087736;28;20480;-74
2021/08/16 08:44:10;;;;;;;3.10;1.98;;;;;;;16.49;80.36;99919.16;5064141;28;20378;-74
2021/08/16 08:46:39;;;;;;;3.47;1.90;;;;;;;16.66;79.86;99918.22;5088022;28;20024;-72
2021/08/16 08:49:05;;;;;;;2.72;1.83;;;;;;;16.79;79.46;99917.19;5086579;28;20031;-73
2021/08/16 08:51:30;;;;;;;1.88;1.27;;;;;;;16.93;78.98;99922.41;5092339;28;20028;-73
2021/08/16 08:53:56;;;;;;;1.45;1.27;;;;;;;17.02;78.71;99925.91;5073833;28;20032;-73
2021/08/16 08:56:21;;;;;;;2.95;1.88;;;;;;;17.15;78.46;99928.69;5091191;28;20028;-73
2021/08/16 08:58:47;;;;;;;5.13;1.50;;;;;;;17.28;78.04;99922.09;5072898;28;20378;-77
2021/08/16 09:01:12;;;;;;;1.50;1.30;;;;;;;17.37;77.59;99925.53;5087412;28;20039;-73
2021/08/16 09:03:48;;;;;;;2.72;1.10;;;;;;;17.37;76.67;99924.75;5088886;28;20141;-76
2021/08/16 09:06:16;;;;;;;1.77;1.52;;;;;;;17.33;76.44;99923.81;5083776;28;20023;-73
2021/08/16 09:08:42;;;;;;;1.30;1.10;;;;;;;17.34;76.06;99920.72;5087892;28;20028;-73
2021/08/16 09:11:12;;;;;;;2.83;1.40;;;;;;;17.41;75.98;99925.69;5088967;28;20024;-73
2021/08/16 09:13:47;;;;;;;5.03;1.60;;;;;;;17.41;75.66;99920.97;5088762;28;20558;-74
2021/08/16 09:16:12;;;;;;;2.25;1.45;;;;;;;17.46;76.03;99922.69;5082869;28;20036;-73
2021/08/16 09:18:37;;;;;;;1.48;1.23;;;;;;;17.56;75.77;99927.75;5092112;28;20020;-74
2021/08/16 09:21:03;;;;;;;1.40;0.80;;;;;;;17.64;75.41;99928.81;5080146;28;20416;-75
2021/08/16 09:23:39;;;;;;;1.15;0.93;;;;;;;17.72;74.64;99931.47;5079736;28;20682;-74
2021/08/16 09:26:06;;;;;;;1.75;1.13;;;;;;;17.81;74.54;99927.81;5084416;28;20217;-74
2021/08/16 09:28:31;;;;;;;1.95;1.33;;;;;;;17.84;74.23;99938.16;5077597;28;20488;-74
2021/08/16 09:31:08;;;;;;;1.92;1.02;;;;;;;17.81;74.14;99931.38;5082737;28;20114;-73
2021/08/16 09:33:33;;;;;;;1.90;1.20;;;;;;;17.79;73.87;99938.38;5072090;28;20021;-74
2021/08/16 09:35:59;;;;;;;4.13;1.20;;;;;;;17.75;74.00;99941.81;5085862;28;21068;-73
2021/08/16 09:38:35;;;;;;;2.65;1.30;;;;;;;17.69;73.64;99934.91;5076230;28;20024;-74
2021/08/16 09:41:01;;;;;;;3.00;1.27;;;;;;;17.69;73.95;99937.66;5088267;28;20032;-74
2021/08/16 09:43:28;;;;;;;3.80;1.30;;;;;;;17.74;73.98;99937.44;5084861;28;20048;-85
2021/08/16 09:45:53;;;;;;;3.88;1.30;;;;;;;17.82;73.96;99940.47;5084218;28;20349;-83
2021/08/16 09:48:21;;;;;;;2.33;0.88;;;;;;;17.82;73.70;99937.72;5080653;28;20025;-81
2021/08/16 09:50:46;;;;;;;3.30;1.65;;;;;;;17.80;73.72;99938.06;5084003;28;20035;-82
2021/08/16 09:53:16;;;;;;;3.65;1.70;;;;;;;17.89;73.85;99937.94;5085150;28;20380;-82
2021/08/16 09:55:43;;;;;;;6.20;2.00;;;;;;;17.95;73.76;99944.84;5088506;28;20032;-81
2021/08/16 09:58:14;;;;;;;3.65;1.50;;;;;;;17.92;73.77;99940.84;5095187;28;20060;-80
2021/08/16 10:00:45;;;;;;;2.38;1.15;;;;;;;17.89;73.68;99941.50;5082074;28;20111;-82
2021/08/16 10:03:13;;;;;;;1.80;0.98;;;;;;;17.90;73.72;99942.31;5087976;28;20094;-81
2021/08/16 10:05:40;;;;;;;1.83;1.38;;;;;;;17.95;73.40;99944.84;5068822;28;20419;-81
2021/08/16 10:08:10;;;;;;;1.77;1.20;;;;;;;18.02;73.34;99947.84;5085733;28;20476;-80
2021/08/16 10:10:36;;;;;;;2.72;1.30;;;;;;;18.05;73.24;99947.13;5076888;28;20032;-82
2021/08/16 10:13:02;;;;;;;2.88;1.30;;;;;;;18.05;73.40;99941.63;5081378;28;20032;-81
2021/08/16 10:15:28;;;;;;;3.33;1.48;;;;;;;18.07;73.41;99950.38;5082390;28;20478;-81
2021/08/16 10:17:54;;;;;;;2.95;1.80;;;;;;;18.09;73.73;99945.31;5073453;28;20031;-81
2021/08/16 10:20:19;;;;;;;2.95;1.40;;;;;;;18.13;73.76;99951.75;5092042;28;20028;-72
2021/08/16 10:22:45;;;;;;;2.15;1.60;;;;;;;18.19;73.80;99944.84;5089149;28;20020;-73
2021/08/16 10:25:17;;;;;;;2.70;1.30;;;;;;;18.33;73.79;99940.91;5082505;28;20027;-73
2021/08/16 10:27:42;;;;;;;3.47;1.85;;;;;;;18.43;73.59;99945.97;5068174;28;20047;-78
2021/08/16 10:30:12;;;;;;;3.42;1.58;;;;;;;18.51;73.61;99950.56;5083532;28;20399;-79
2021/08/16 10:32:37;;;;;;;2.38;1.38;;;;;;;18.59;73.36;99946.06;5090209;28;20034;-80
2021/08/16 10:35:11;;;;;;;2.08;1.40;;;;;;;18.62;73.11;99939.84;5067273;28;20031;-78
2021/08/16 10:37:38;;;;;;;2.80;1.88;;;;;;;18.71;73.00;99940.50;5083108;28;20020;-78
2021/08/16 10:40:22;;;;;;;1.77;1.55;;;;;;;18.77;72.84;99941.09;5085138;28;20051;-77
2021/08/16 10:42:48;;;;;;;4.65;1.40;;;;;;;18.85;72.48;99945.66;5085958;28;20577;-81
2021/08/16 10:45:26;;;;;;;2.13;1.20;;;;;;;18.90;72.04;99937.13;5089969;28;20047;-81
2021/08/16 10:48:02;;;;;;;2.00;1.10;;;;;;;18.78;71.07;99943.50;5094775;28;20046;-81
2021/08/16 10:50:27;;;;;;;2.30;1.10;;;;;;;18.60;71.68;99945.69;5094752;28;20362;-82
2021/08/16 10:53:01;;;;;;;2.47;1.33;;;;;;;18.56;71.25;99947.56;5094633;28;20024;-81
2021/08/16 10:55:26;;;;;;;1.65;1.10;;;;;;;18.59;70.62;99951.59;5094585;28;20093;-82
2021/08/16 10:57:52;;;;;;;2.72;1.50;;;;;;;18.57;70.66;99954.69;5096885;28;20473;-80
2021/08/16 11:00:17;;;;;;;1.60;1.13;;;;;;;18.57;70.59;99948.34;5065174;28;20027;-82
2021/08/16 11:02:43;;;;;;;4.43;1.23;;;;;;;18.61;70.44;99944.56;5092023;28;20024;-81
2021/08/16 11:05:11;;;;;;;2.22;1.50;;;;;;;18.60;70.38;99948.47;5089682;28;20493;-81
2021/08/16 11:07:37;;;;;;;2.13;1.20;;;;;;;18.61;70.29;99950.09;5089743;28;20024;-81
2021/08/16 11:10:03;;;;;;;1.48;1.20;;;;;;;18.64;70.26;99949.38;5083489;28;20081;-81
2021/08/16 11:12:39;;;;;;;2.45;1.40;;;;;;;18.88;69.57;99947.75;5081765;28;20073;-83
2021/08/16 11:15:06;;;;;;;2.60;1.30;;;;;;;18.99;68.99;99945.28;5081724;28;20040;-83
2021/08/16 11:17:31;;;;;;;1.48;1.10;;;;;;;18.98;68.87;99941.72;5093088;28;20020;-82
2021/08/16 11:20:01;;;;;;;2.05;1.13;;;;;;;19.16;67.92;99942.22;5088008;28;20084;-81
2021/08/16 11:22:27;;;;;;;1.95;1.20;;;;;;;19.39;67.81;99939.69;5091806;28;20020;-82
2021/08/16 11:24:53;;;;;;;1.60;0.98;;;;;;;19.56;67.03;99943.25;5089361;28;20436;-83
2021/08/16 11:27:24;;;;;;;3.40;1.30;;;;;;;19.77;66.63;99943.06;5091524;28;20031;-81